createdAt,value
2023-05-04T00:00:33.505Z,100538.16
2023-05-04T00:04:38.645Z,100534.63
2023-05-04T00:08:41.762Z,100534.63
2023-05-04T00:12:46.321Z,100534.66
2023-05-04T00:16:49.490Z,100531.13
2023-05-04T00:20:54.096Z,100526.66
2023-05-04T00:24:57.049Z,100526.66
2023-05-04T00:29:00.145Z,100514.28
2023-05-04T00:33:03.160Z,100520.44
2023-05-04T00:37:08.089Z,100511.59
2023-05-04T00:41:11.225Z,100516.84
2023-05-04T00:45:16.152Z,100519.47
2023-05-04T00:49:21.421Z,100515.03
2023-05-04T00:53:26.438Z,100508.84
2023-05-04T00:57:29.710Z,100510.56
2023-05-04T01:01:32.949Z,100497.31
2023-05-04T01:05:39.792Z,100492.03
2023-05-04T01:09:47.294Z,100500.75
2023-05-04T01:13:52.713Z,100493.69
2023-05-04T01:17:55.899Z,100493.59
2023-05-04T01:22:00.448Z,100491.81
2023-05-04T01:26:11.379Z,100497.94
2023-05-04T01:30:20.150Z,100489.97
2023-05-04T01:34:24.189Z,100497.84
2023-05-04T01:38:29.692Z,100495.19
2023-05-04T01:42:32.850Z,100485.50
2023-05-04T01:46:36.048Z,100488.09
2023-05-04T01:50:39.236Z,100484.56
2023-05-04T01:54:43.771Z,100487.16
2023-05-04T01:58:46.957Z,100484.44
2023-05-04T02:02:50.171Z,100483.53
2023-05-04T02:06:55.751Z,100479.09
2023-05-04T02:11:00.514Z,100479.09
2023-05-04T02:15:03.637Z,100486.09
2023-05-04T02:19:07.312Z,100493.09
2023-05-04T02:23:11.660Z,100491.31
2023-05-04T02:27:16.150Z,100488.63
2023-05-04T02:35:25.196Z,100487.66
2023-05-04T02:39:28.270Z,100483.16
2023-05-04T02:43:32.705Z,100490.13
2023-05-04T02:47:36.163Z,100487.47
2023-05-04T02:51:39.305Z,100483.88
2023-05-04T02:55:42.456Z,100490.88
2023-05-04T02:59:46.910Z,100485.56
2023-05-04T03:03:49.981Z,100483.72
2023-05-04T03:07:53.271Z,100483.66
2023-05-04T03:11:56.744Z,100483.59
2023-05-04T03:16:01.428Z,100483.59
2023-05-04T03:20:05.503Z,100478.25
2023-05-04T03:24:09.908Z,100474.72
2023-05-04T03:28:13.725Z,100479.91
2023-05-04T03:32:19.610Z,100479.75
2023-05-04T03:36:22.976Z,100485.00
2023-05-04T03:40:26.734Z,100478.84
2023-05-04T03:44:30.838Z,100484.09
2023-05-04T03:48:35.339Z,100494.59
2023-05-04T03:52:40.914Z,100495.47
2023-05-04T03:56:44.816Z,100491.91
2023-05-04T04:00:51.599Z,100495.41
2023-05-04T04:04:56.166Z,100495.38
2023-05-04T04:08:59.611Z,100504.13
2023-05-04T04:13:02.814Z,100499.69
2023-05-04T04:17:06.421Z,100497.91
2023-05-04T04:21:11.275Z,100500.53
2023-05-04T04:25:15.364Z,100501.44
2023-05-04T04:29:18.912Z,100497.00
2023-05-04T04:33:21.969Z,100494.34
2023-05-04T04:37:26.679Z,100503.09
2023-05-04T04:41:29.734Z,100502.25
2023-05-04T04:45:34.045Z,100512.81
2023-05-04T04:49:38.608Z,100509.31
2023-05-04T04:53:43.116Z,100508.50
2023-05-04T04:57:46.165Z,100506.72
2023-05-04T05:01:49.872Z,100511.09
2023-05-04T05:05:52.996Z,100511.16
2023-05-04T05:09:57.832Z,100511.19
2023-05-04T05:14:00.893Z,100521.84
2023-05-04T05:18:04.019Z,100519.31
2023-05-04T05:22:07.174Z,100528.22
2023-05-04T05:26:11.813Z,100522.25
2023-05-04T05:30:15.151Z,100518.88
2023-05-04T05:34:18.174Z,100513.81
2023-05-04T05:38:21.619Z,100528.13
2023-05-04T05:42:26.006Z,100521.41
2023-05-04T05:46:29.172Z,100518.06
2023-05-04T05:50:32.176Z,100525.25
2023-05-04T05:54:35.873Z,100516.69
2023-05-04T05:58:40.655Z,100512.50
2023-05-04T06:02:43.770Z,100517.03
2023-05-04T06:06:46.832Z,100516.34
2023-05-04T06:10:51.610Z,100516.44
2023-05-04T06:14:56.024Z,100519.16
2023-05-04T06:18:59.962Z,100510.41
2023-05-04T06:23:02.985Z,100518.41
2023-05-04T06:27:06.034Z,100510.59
2023-05-04T06:31:10.578Z,100507.13
2023-05-04T06:35:13.860Z,100501.00
2023-05-04T06:39:16.944Z,100505.44
2023-05-04T06:43:19.926Z,100509.03
2023-05-04T06:47:24.400Z,100512.59
2023-05-04T06:51:27.476Z,100509.06
2023-05-04T06:55:30.599Z,100508.19
2023-05-04T06:59:33.626Z,100501.16
2023-05-04T07:03:38.957Z,100509.06
2023-05-04T07:07:42.025Z,100495.84
2023-05-04T07:11:45.170Z,100503.81
2023-05-04T07:15:48.195Z,100501.13
2023-05-04T07:19:53.265Z,100501.13
2023-05-04T07:23:56.383Z,100508.16
2023-05-04T07:27:59.497Z,100502.81
2023-05-04T07:32:02.639Z,100508.13
2023-05-04T07:36:07.581Z,100508.97
2023-05-04T07:40:11.617Z,100511.59
2023-05-04T07:44:14.670Z,100511.53
2023-05-04T07:48:18.159Z,100500.00
2023-05-04T07:52:22.818Z,100497.34
2023-05-04T07:56:25.862Z,100493.72
2023-05-04T08:00:29.261Z,100493.66
2023-05-04T08:04:32.360Z,100477.72
2023-05-04T08:08:36.853Z,100485.59
2023-05-04T08:12:41.495Z,100494.41
2023-05-04T08:16:44.537Z,100481.94
2023-05-04T08:20:47.562Z,100480.16
2023-05-04T08:24:51.998Z,100478.38
2023-05-04T08:28:55.008Z,100480.03
2023-05-04T08:32:59.256Z,100477.28
2023-05-04T08:37:02.454Z,100480.72
2023-05-04T08:41:07.356Z,100473.53
2023-05-04T08:45:11.015Z,100468.13
2023-05-04T08:49:14.097Z,100472.47
2023-05-04T08:53:20.165Z,100477.69
2023-05-04T08:57:26.295Z,100468.78
2023-05-04T09:01:31.083Z,100458.94
2023-05-04T09:05:35.361Z,100457.81
2023-05-04T09:09:38.377Z,100456.91
2023-05-04T09:13:43.858Z,100468.34
2023-05-04T09:17:58.232Z,100459.31
2023-05-04T09:22:01.796Z,100455.59
2023-05-04T09:26:04.943Z,100454.69
2023-05-04T09:30:11.369Z,100455.44
2023-05-04T09:34:15.135Z,100450.03
2023-05-04T09:38:26.703Z,100446.28
2023-05-04T09:42:29.874Z,100444.38
2023-05-04T09:46:36.348Z,100427.38
2023-05-04T09:50:40.268Z,100431.63
2023-05-04T09:54:46.796Z,100426.94
2023-05-04T09:58:50.316Z,100423.28
2023-05-04T10:02:55.203Z,100424.03
2023-05-04T10:06:58.388Z,100414.97
2023-05-04T10:11:01.912Z,100414.00
2023-05-04T10:15:09.105Z,100409.31
2023-05-04T10:19:43.932Z,100398.47
2023-05-04T10:24:12.087Z,100388.63
2023-05-04T10:28:28.556Z,100388.50
2023-05-04T10:32:32.578Z,100378.69
2023-05-04T10:36:41.709Z,100374.97
2023-05-04T10:40:49.748Z,100376.47
2023-05-04T10:44:55.079Z,100373.38
2023-05-04T10:48:58.369Z,100372.13
2023-05-04T10:53:02.782Z,100361.16
2023-05-04T10:57:06.887Z,100366.44
2023-05-04T11:01:13.179Z,100364.56
2023-05-04T11:05:20.222Z,100362.88
2023-05-04T11:09:24.997Z,100359.91
2023-05-04T11:13:29.948Z,100355.22
2023-05-04T11:17:34.486Z,100348.81
2023-05-04T11:21:37.645Z,100338.13
2023-05-04T11:25:42.041Z,100324.75
2023-05-04T11:29:54.583Z,100329.91
2023-05-04T11:33:57.607Z,100321.63
2023-05-04T11:38:00.977Z,100313.44
2023-05-04T11:42:09.107Z,100305.28
2023-05-04T11:46:12.920Z,100314.69
2023-05-04T11:50:17.846Z,100308.31
2023-05-04T11:54:22.233Z,100311.59
2023-05-04T11:58:27.085Z,100306.22
2023-05-04T12:02:30.211Z,100306.94
2023-05-04T12:06:34.308Z,100294.47
2023-05-04T12:10:37.304Z,100301.53
2023-05-04T12:14:50.204Z,100290.78
2023-05-04T12:19:03.825Z,100284.22
2023-05-04T12:23:08.671Z,100282.97
2023-05-04T12:27:15.112Z,100289.94
2023-05-04T12:31:19.754Z,100285.63
2023-05-04T12:35:23.008Z,100275.69
2023-05-04T12:39:28.047Z,100280.91
2023-05-04T12:43:31.258Z,100270.38
2023-05-04T12:47:35.782Z,100264.16
2023-05-04T12:51:38.833Z,100264.84
2023-05-04T12:55:42.701Z,100256.97
2023-05-04T12:59:45.763Z,100254.97
2023-05-04T13:03:50.716Z,100253.22
2023-05-04T13:07:54.397Z,100250.66
2023-05-04T13:11:57.439Z,100246.13
2023-05-04T13:16:00.737Z,100243.50
2023-05-04T13:20:06.829Z,100239.91
2023-05-04T13:24:11.389Z,100238.19
2023-05-04T13:28:14.611Z,100236.41
2023-05-04T13:32:17.677Z,100235.41
2023-05-04T13:36:22.091Z,100221.72
2023-05-04T13:40:25.105Z,100213.63
2023-05-04T13:44:28.255Z,100215.56
2023-05-04T13:48:33.046Z,100212.03
2023-05-04T13:52:38.032Z,100198.59
2023-05-04T13:56:41.088Z,100193.34
2023-05-04T14:00:44.253Z,100180.88
2023-05-04T14:04:47.328Z,100186.44
2023-05-04T14:08:51.871Z,100170.56
2023-05-04T14:12:55.077Z,100181.19
2023-05-04T14:16:58.227Z,100177.56
2023-05-04T14:21:01.445Z,100186.38
2023-05-04T14:25:07.102Z,100170.53
2023-05-04T14:29:10.312Z,100177.47
2023-05-04T14:33:13.391Z,100178.50
2023-05-04T14:37:16.842Z,100168.94
2023-05-04T14:41:21.251Z,100171.78
2023-05-04T14:45:24.365Z,100166.56
2023-05-04T14:49:36.705Z,100165.91
2023-05-04T14:53:41.116Z,100167.72
2023-05-04T14:57:45.568Z,100155.31
2023-05-04T15:01:48.695Z,100150.91
2023-05-04T15:05:51.871Z,100155.31
2023-05-04T15:09:55.035Z,100150.72
2023-05-04T15:13:59.485Z,100140.06
2023-05-04T15:18:02.694Z,100150.03
2023-05-04T15:22:06.073Z,100139.63
2023-05-04T15:26:09.098Z,100138.84
2023-05-04T15:30:14.194Z,100142.63
2023-05-04T15:34:18.635Z,100135.56
2023-05-04T15:38:22.086Z,100131.94
2023-05-04T15:42:25.136Z,100135.44
2023-05-04T15:46:29.578Z,100131.09
2023-05-04T15:50:33.261Z,100125.94
2023-05-04T15:54:36.451Z,100117.22
2023-05-04T15:58:39.450Z,100120.78
2023-05-04T16:02:43.970Z,100110.25
2023-05-04T16:06:47.827Z,100114.94
2023-05-04T16:10:52.021Z,100108.78
2023-05-04T16:14:55.047Z,100108.91
2023-05-04T16:18:59.471Z,100114.28
2023-05-04T16:23:03.001Z,100105.44
2023-05-04T16:27:06.818Z,100112.59
2023-05-04T16:31:12.001Z,100109.19
2023-05-04T16:35:16.774Z,100107.47
2023-05-04T16:39:20.359Z,100110.03
2023-05-04T16:43:24.080Z,100107.28
2023-05-04T16:47:28.380Z,100109.19
2023-05-04T16:51:32.885Z,100105.00
2023-05-04T16:55:37.233Z,100102.31
2023-05-04T16:59:40.997Z,100104.13
2023-05-04T17:03:44.250Z,100106.81
2023-05-04T17:07:50.918Z,100104.13
2023-05-04T17:11:54.213Z,100102.44
2023-05-04T17:15:59.868Z,100107.91
2023-05-04T17:20:08.552Z,100108.03
2023-05-04T17:24:18.490Z,100105.50
2023-05-04T17:28:21.485Z,100110.94
2023-05-04T17:32:24.572Z,100098.56
2023-05-04T17:36:28.173Z,100106.84
2023-05-04T17:40:32.594Z,100108.84
2023-05-04T17:44:35.621Z,100109.00
2023-05-04T17:48:38.937Z,100106.47
2023-05-04T17:52:41.932Z,100117.22
2023-05-04T17:56:46.336Z,100120.78
2023-05-04T18:00:51.332Z,100120.06
2023-05-04T18:04:56.265Z,100130.09
2023-05-04T18:08:59.663Z,100134.75
2023-05-04T18:13:04.234Z,100134.88
2023-05-04T18:17:07.920Z,100143.16
2023-05-04T18:21:11.148Z,100152.31
2023-05-04T18:25:15.385Z,100153.53
2023-05-04T18:29:19.928Z,100166.19
2023-05-04T18:33:23.109Z,100161.91
2023-05-04T18:37:26.549Z,100165.59
2023-05-04T18:41:29.881Z,100175.53
2023-05-04T18:45:34.577Z,100170.34
2023-05-04T18:49:37.601Z,100187.38
2023-05-04T18:53:40.679Z,100180.41
2023-05-04T18:57:44.333Z,100185.00
2023-05-04T19:01:48.732Z,100176.22
2023-05-04T19:05:51.973Z,100185.25
2023-05-04T19:09:55.466Z,100183.66
2023-05-04T19:13:58.986Z,100195.31
2023-05-04T19:18:03.785Z,100185.69
2023-05-04T19:22:07.475Z,100185.88
2023-05-04T19:26:10.530Z,100193.13
2023-05-04T19:30:13.866Z,100196.81
2023-05-04T19:34:18.321Z,100191.59
2023-05-04T19:38:21.323Z,100188.25
2023-05-04T19:42:24.438Z,100191.91
2023-05-04T19:46:27.446Z,100191.16
2023-05-04T19:50:32.152Z,100197.53
2023-05-04T19:54:38.318Z,100193.25
2023-05-04T19:58:41.572Z,100195.13
2023-05-04T20:02:44.716Z,100199.69
2023-05-04T20:06:49.250Z,100197.13
2023-05-04T20:10:52.266Z,100191.94
2023-05-04T20:14:55.520Z,100192.03
2023-05-04T20:18:59.604Z,100193.03
2023-05-04T20:23:05.052Z,100195.81
2023-05-04T20:27:08.280Z,100189.72
2023-05-04T20:31:12.252Z,100192.47
2023-05-04T20:35:15.228Z,100190.75
2023-05-04T20:39:19.962Z,100192.56
2023-05-04T20:43:22.929Z,100198.84
2023-05-04T20:47:26.307Z,100198.94
2023-05-04T20:51:29.595Z,100188.38
2023-05-04T20:55:33.972Z,100184.84
2023-05-04T20:59:37.039Z,100184.91
2023-05-04T21:03:40.186Z,100186.72
2023-05-04T21:07:43.287Z,100188.56
2023-05-04T21:11:47.729Z,100182.38
2023-05-04T21:15:51.086Z,100184.25
2023-05-04T21:19:54.244Z,100177.19
2023-05-04T21:23:57.244Z,100176.34
2023-05-04T21:28:01.711Z,100189.69
2023-05-04T21:32:05.924Z,100187.09
2023-05-04T21:36:13.834Z,100188.91
2023-05-04T21:40:16.858Z,100188.06
2023-05-04T21:44:21.265Z,100180.13
2023-05-04T21:48:24.329Z,100175.75
2023-05-04T21:52:27.533Z,100171.31
2023-05-04T21:56:31.496Z,100172.25
2023-05-04T22:00:36.095Z,100171.44
2023-05-04T22:04:43.396Z,100170.59
2023-05-04T22:08:46.701Z,100168.88
2023-05-04T22:12:49.884Z,100164.50
2023-05-04T22:16:54.561Z,100169.81
2023-05-04T22:20:57.715Z,100169.84
2023-05-04T22:25:00.724Z,100163.69
2023-05-04T22:29:03.695Z,100157.53
2023-05-04T22:33:08.245Z,100169.94
2023-05-04T22:37:12.005Z,100163.78
2023-05-04T22:41:15.122Z,100168.22
2023-05-04T22:45:18.751Z,100165.66
2023-05-04T22:49:23.136Z,100165.66
2023-05-04T22:53:26.231Z,100168.31
2023-05-04T22:57:29.296Z,100157.75
2023-05-04T23:01:32.527Z,100163.06
2023-05-04T23:05:37.374Z,100149.91
2023-05-04T23:09:43.259Z,100143.75
2023-05-04T23:13:46.246Z,100146.41
2023-05-04T23:17:49.467Z,100149.06
2023-05-04T23:21:54.114Z,100149.09
2023-05-04T23:25:57.286Z,100141.19
2023-05-04T23:30:00.385Z,100142.09
2023-05-04T23:34:03.422Z,100144.78
2023-05-04T23:38:11.001Z,100138.63
2023-05-04T23:42:14.136Z,100142.19
2023-05-04T23:46:17.193Z,100137.81
2023-05-04T23:50:20.225Z,100128.09
2023-05-04T23:54:24.661Z,100136.94
2023-05-04T23:58:28.033Z,100136.97
